AirNav   Everest Fuels
 
 4561 users online  

T19 Duval-Freer Airport
Freer, Texas, USA

GOING TO FREER?


FAA INFORMATION EFFECTIVE 20 MAY 2021

Location

FAA Identifier: T19
Lat/Long: 27-53-19.3000N 098-35-59.8500W
27-53.321667N 098-35.997500W
27.8886944,-98.5999583
(estimated)
Elevation: 564 ft. / 171.9 m (surveyed)
Variation: 07E (1985)
From city: 1 mile NE of FREER, TX
Time zone: UTC -5 (UTC -6 during Standard Time)
Zip code: 78357

Airport Operations

Airport use: Open to the public
Activation date: 11/1947
Control tower: no
ARTCC: HOUSTON CENTER
FSS: SAN ANGELO FLIGHT SERVICE STATION
NOTAMs facility: SJT (NOTAM-D service available)
Attendance: UNATNDD
Wind indicator: lighted
Segmented circle: yes
Lights: SS-SR
Beacon: white-green (lighted land airport)
Operates sunset to sunrise.

Airport Communications

CTAF: 122.9

Nearby radio navigation aids

VOR radial/distance  VOR name  Freq  Var
ALIr280/(32.0)ALICE VOR114.5006E

Airport Services

Parking: tiedowns
Airframe service: NONE
Powerplant service: NONE

Runway Information

Runway 14/32

Dimensions: 3200 x 60 ft. / 975 x 18 m
Surface: asphalt, in poor condition
BROKEN ASPHALT, LOOSE STONES, METAL PIECES ON RWY, VEGETATION ENCROACHING ALONG RWY EDGES.
Weight bearing capacity: 
Single wheel: 24.0
Runway edge lights: low intensity
SVRL RWY & THR LTS INOP, INCORRECT COLOR, & MOUNTED ON NON-FRANGIBLE STEEL RODS.
RUNWAY 14  RUNWAY 32
Traffic pattern: leftleft
Markings: basic, in fair conditionbasic, in fair condition
Obstructions: 12 ft. brush, 201 ft. from runway, 30 ft. left of centerline
BRUSH & SML TREES, 50-199 FT DSTC, 0 FT BOTH.
42 ft. pole, 977 ft. from runway, 86 ft. right of centerline, 18:1 slope to clear

Airport Ownership and Management from official FAA records

Ownership: Publicly-owned
Owner: DUVAL CO - CITY OF FREER
CITY OF FREER
FREER, TX 78357
Phone 361-394-6612
Manager: DAVID GUAJARDO
P.O. DRAWER N
FREER, TX 78357
Phone 361-394-6612
CITY FOREMAN

Airport Operational Statistics

Aircraft operations: 100/year *
100% transient general aviation
* for 12-month period ending 07 May 2020

Additional Remarks

TO HAVE GATE UNLOCKED, CALL 361-394-6002 (POLICE DEPT).
APRON AND TWY, NO MARKING.
FOR CD CTC HOUSTON ARTCC AT 281-230-5622.
NO TRML FAC.

Instrument Procedures

There are no published instrument procedures at T19.

Some nearby airports with instrument procedures:

KNOG - Orange Grove Naval Auxiliary Field (30 nm E)
KALI - Alice International Airport (32 nm E)
KHBV - Jim Hogg County Airport (33 nm S)
KIKG - Kleberg County Airport (36 nm SE)
8T6 - Live Oak County Airport (38 nm NE)
 
Loc | Ops | Rwys | IFR | FBO | Links
Com | Nav | Svcs | Stats | Notes
Area around T19 (Duval-Freer Airport)
 
Road maps at: MapQuest Bing Google
 
Aerial photo
WARNING: Photo may not be current or correct
Aerial photo of T19 (Duval-Freer Airport)
Photo by Gregg Gilliam
Taken in January 2009

Do you have a better or more recent aerial photo of Duval-Freer Airport that you would like to share? If so, please send us your photo.

 
Sectional chart

 
Airport distance calculator
Flying to Duval-Freer Airport? Find the distance to fly.

From to T19

Sunrise and sunset
Times for 15-Jun-2021
 Local
(UTC-5)
 Zulu
(UTC)
Morning civil twilight06:1211:12
Sunrise06:3911:39
Sunset20:3101:31
Evening civil twilight20:5801:58

Current date and time
Zulu (UTC)  15-Jun-2021 12:57:29
Local (UTC-5)  15-Jun-2021 07:57:29
 
METAR
KNOG 
29nm E 
151156Z AUTO 35005KT 10SM CLR 23/22 A2997 RMK AO2 SLP128 6//// 7//// T02280222 10239 20228 53006 PNO $
KALI 
32nm E 
151253Z AUTO 36004KT 10SM CLR 24/23 A2997 RMK AO2 SLP147 T02440233
KHBV 
33nm S 
151235Z AUTO 00000KT 10SM CLR 22/17 A3000 RMK AO2 T02170174
KIKG 
36nm SE 
151235Z AUTO 00000KT 7SM CLR M37/ A2998 RMK AO2 T1370
KNQI 
48nm SE 
151156Z 35004KT 10SM FEW180 SCT250 23/22 A2995 RMK AO2 SLP139 T02280217 10244 20222 53005 $
KBKS 
48nm SE 
151255Z AUTO 00000KT 10SM CLR 22/21 A2997 RMK AO2 T02230210
KRBO 
49nm E 
151235Z AUTO 36004KT 10SM CLR 25/24 A2997 RMK AO2 T02460238
TAF
KALI 
32nm E 
151123Z 1512/1612 VRB03KT 5SM BR FEW004 SCT250 TEMPO 1512/1513 2SM BR SCT004 FM151400 VRB05KT P6SM FEW025 FM151800 08008KT P6SM FEW050 FM160100 13005KT P6SM SCT060 SCT250 FM160800 VRB02KT 5SM BR SCT005 TEMPO 1610/1612 2SM BR BKN005
NOTAMs
Click for the latest NOTAMs
NOTAMs are issued by the DoD/FAA and will open in a separate window not controlled by AirNav.

 

 
 

Would you like to see your business listed on this page?

 If your business provides an interesting product or service to pilots, flight crews, aircraft, or users of the Duval-Freer Airport, you should consider listing it here.  To start the listing process, click on the button below
 
Add a business
 

Other Pages about Duval-Freer Airport

Update a link
 
Copyright © AirNav, LLC. All rights reserved. Privacy Policy  Contact